Flight Track Log - Related Links

Times and Time Zones

All times are in EDT time to prevent confusion due to time zone crossing. See the UAL4336 flight status page for this flight to view local times or setup timezone preferences in your user account.

Time Position Orientation Groundspeed Altitude Reporting Facility
EDT Latitude Longitude Course Direction KTS MPH feet Rate Location/Type
Wed 10:06:00 AM 29.9834 -94.7877 90° East  Level FlightAware Approximate
Wed 10:07:00 AM 29.9833 -94.6785 90° East  Level FlightAware Approximate
Wed 10:08:00 AM 29.9833 -94.5694 90° East  Level FlightAware Approximate
Wed 10:09:00 AM 29.9834 -94.4602 90° East  Level FlightAware Approximate
Wed 10:10:00 AM 29.9833 -94.3511 90° East  Level FlightAware Approximate
Wed 10:11:00 AM 29.9947 -94.2435 77° East  Level FlightAware Approximate
Wed 10:12:00 AM 30.0159 -94.1371 77° East  Level FlightAware Approximate
Wed 10:13:00 AM 30.0248 -94.0284 85° East  Level FlightAware Approximate
Wed 10:14:00 AM 30.0331 -93.9197 85° East  Level FlightAware Approximate
Wed 10:15:00 AM 30.0505 -93.8127 82° East  Level FlightAware Approximate
Wed 10:16:00 AM 30.0633 -93.7045 82° East  Level FlightAware Approximate
Wed 10:17:00 AM 30.0761 -93.5963 82° East  Level FlightAware Approximate
Wed 10:18:00 AM 30.0887 -93.4880 82° East  Level FlightAware Approximate
Wed 10:19:00 AM 30.1013 -93.3797 82° East  Level FlightAware Approximate
Wed 10:20:00 AM 30.1138 -93.2714 82° East  Level FlightAware Approximate
Wed 10:21:00 AM 30.1262 -93.1631 82° East  Level FlightAware Approximate
Wed 10:22:00 AM 30.1413 -93.0552 78° East  Level FlightAware Approximate
Wed 10:23:00 AM 30.1602 -92.9481 78° East  Level FlightAware Approximate
Wed 10:24:00 AM 30.1791 -92.8410 78° East  Level FlightAware Approximate
Wed 10:25:00 AM 30.2022 -92.7350 75° East  Level FlightAware Approximate
Wed 10:26:00 AM 30.2266 -92.6293 75° East  Level FlightAware Approximate
Wed 10:27:00 AM 30.2463 -92.5223 79° East  Level FlightAware Approximate
Wed 10:28:00 AM 30.2642 -92.4149 79° East  Level FlightAware Approximate
Wed 10:29:00 AM 30.2843 -92.3079 77° East  Level FlightAware Approximate
Wed 10:30:00 AM 30.3047 -92.2010 78° East  Level FlightAware Approximate
Wed 10:31:00 AM 30.3250 -92.0941 78° East  Level FlightAware Approximate
Wed 10:32:00 AM 30.3419 -91.9866 78° East  Level FlightAware Approximate
Wed 10:33:00 AM 30.3613 -91.8794 78° East  Level FlightAware Approximate
Wed 10:34:00 AM 30.3858 -91.7737 74° East  Level FlightAware Approximate
Wed 10:35:00 AM 30.4121 -91.6684 74° East  Level FlightAware Approximate
Wed 10:36:00 AM 30.4239 -91.5604 78° East  Level FlightAware Approximate
Wed 10:37:00 AM 30.4434 -91.4531 78° East  Level FlightAware Approximate
Wed 10:38:00 AM 30.4667 -91.3470 90° East  Level FlightAware Approximate
Wed 10:39:00 AM 30.4938 -91.2458 60° Northeast  Level FlightAware Approximate
Wed 10:40:00 AM 30.5156 -91.1397 79° East  Level FlightAware Approximate
Wed 10:41:00 AM 30.5167 -91.1333 79° East  Level FlightAware Approximate
Wed 10:42:00 AM 30.5329 -91.1499 79° East  Level Estimated
Wed 10:43:00 AM 30.5329 -91.1499 79° East  Level Estimated
Wed 10:44:00 AM 30.5329 -91.1499 79° East  Level Estimated
Wed 10:45:00 AM 30.5329 -91.1499 79° East  Level Estimated
Wed 10:46:00 AM 30.5329 -91.1499 79° East  Level Estimated

Login

Don't have an account? Register now (free) for customized features, flight alerts, and more!